Terminal Aerodrome Forecast
Issued by NWS

Home | Current Version | Previous Version | Text Only | Print | Product List | Glossary On
Versions: 1 2 3 4 5 6 7 8 9 10 11 12 13 14 15 16 17 18 19 20 21 22
000
FTUS45 KTFX 251500 AAA
TAFCTB
TAF AMD
KCTB 251500Z 2515/2612 33010KT P6SM SCT030
      TEMPO 2515/2517 2SM BR SCT006
     FM252000 23010KT P6SM SCT030 BKN060=

USA.gov is the U.S. government's official web portal to all federal, state and local government web resources and services.